Time;durP1;ratioP1;P1;durP2;ratioP2;P2;SDS_P1;SDS_P2;PMS_P1;PMS_P2;Temp;Humidity;BMP_temperature;BMP_pressure;BME280_temperature;BME280_humidity;BME280_pressure;Samples;Min_cycle;Max_cycle;Signal;HPM_P1;HPM_P2
2022/08/07 00:01:32;;;;;;;5.78;4.55;;;13.70;99.90;;;;;;4997661;28;20049;-77
2022/08/07 00:03:58;;;;;;;5.80;4.50;;;13.70;99.90;;;;;;5030773;28;20490;-76
2022/08/07 00:06:24;;;;;;;;;;;13.70;99.90;;;;;;5031129;28;20060;-76
2022/08/07 00:08:51;;;;;;;9.20;5.03;;;13.70;99.90;;;;;;5030683;28;20003;-75
2022/08/07 00:11:16;;;;;;;6.90;4.88;;;13.70;99.90;;;;;;5031161;28;20038;-76
2022/08/07 00:13:44;;;;;;;6.90;4.55;;;13.50;99.90;;;;;;5030767;28;20044;-77
2022/08/07 00:16:11;;;;;;;4.68;3.95;;;13.50;99.90;;;;;;5030485;28;20095;-77
2022/08/07 00:18:37;;;;;;;5.90;4.55;;;13.40;99.90;;;;;;5013765;28;20048;-77
2022/08/07 00:21:05;;;;;;;5.57;3.88;;;13.40;99.90;;;;;;5013225;28;20051;-77
2022/08/07 00:23:32;;;;;;;5.35;3.92;;;13.40;99.90;;;;;;5029925;28;20139;-77
2022/08/07 00:25:59;;;;;;;4.70;3.80;;;13.30;99.90;;;;;;5030144;28;20045;-77
2022/08/07 00:28:25;;;;;;;6.53;4.60;;;13.30;99.90;;;;;;5014037;28;20037;-76
2022/08/07 00:30:51;;;;;;;6.93;5.70;;;13.20;99.90;;;;;;5029334;28;20041;-76
2022/08/07 00:33:16;;;;;;;9.55;6.18;;;13.20;99.90;;;;;;4997514;28;20115;-77
2022/08/07 00:35:42;;;;;;;7.13;5.00;;;13.20;99.90;;;;;;5030187;28;20087;-77
2022/08/07 00:38:08;;;;;;;8.80;6.10;;;13.20;99.90;;;;;;5029595;28;20331;-77
2022/08/07 00:40:34;;;;;;;8.50;6.10;;;13.20;99.90;;;;;;5031421;28;20418;-77
2022/08/07 00:43:00;;;;;;;8.13;5.90;;;13.20;99.90;;;;;;5049848;28;20053;-77
2022/08/07 00:45:25;;;;;;;7.15;5.40;;;13.20;99.90;;;;;;5049956;28;20041;-77
2022/08/07 00:47:51;;;;;;;9.10;5.45;;;13.10;99.90;;;;;;5049466;28;20442;-76
2022/08/07 00:50:17;;;;;;;6.78;5.25;;;13.10;99.90;;;;;;5051368;28;20503;-77
2022/08/07 00:52:43;;;;;;;5.93;4.63;;;13.10;99.90;;;;;;5033314;28;20049;-77
2022/08/07 00:55:09;;;;;;;6.82;4.65;;;13.00;99.90;;;;;;5031406;28;20029;-77
2022/08/07 00:57:35;;;;;;;5.85;4.55;;;13.00;99.90;;;;;;5029877;28;20042;-77
2022/08/07 01:00:04;;;;;;;6.30;4.20;;;13.00;99.90;;;;;;5040828;28;20120;-76
2022/08/07 01:02:30;;;;;;;6.38;4.47;;;12.90;99.90;;;;;;5049797;28;20045;-77
2022/08/07 01:04:57;;;;;;;6.43;4.90;;;12.80;99.90;;;;;;5049328;28;20037;-77
2022/08/07 01:07:23;;;;;;;5.90;3.88;;;12.80;99.90;;;;;;5032923;28;20053;-77
2022/08/07 01:09:49;;;;;;;4.50;3.47;;;12.70;99.90;;;;;;5049436;28;20500;-77
2022/08/07 01:12:15;;;;;;;4.93;4.10;;;12.70;99.90;;;;;;5036064;28;20489;-76
2022/08/07 01:14:41;;;;;;;6.07;4.72;;;12.60;99.90;;;;;;5030949;28;20838;-76
2022/08/07 01:17:09;;;;;;;5.25;4.07;;;12.60;99.90;;;;;;5029125;28;20520;-76
2022/08/07 01:19:35;;;;;;;4.03;3.00;;;12.60;99.90;;;;;;5029365;28;20749;-76
2022/08/07 01:22:02;;;;;;;4.15;3.08;;;12.50;99.90;;;;;;5018519;28;20041;-77
2022/08/07 01:24:28;;;;;;;3.97;2.80;;;12.50;99.90;;;;;;5034923;28;20041;-78
2022/08/07 01:26:54;;;;;;;4.65;2.40;;;12.40;99.90;;;;;;5029198;28;20084;-76
2022/08/07 01:29:24;;;;;;;4.40;3.47;;;12.40;99.90;;;;;;5027150;28;20045;-77
2022/08/07 01:31:51;;;;;;;6.63;4.75;;;12.40;99.90;;;;;;5029364;28;20084;-77
2022/08/07 01:34:17;;;;;;;;;;;12.40;99.90;;;;;;5013137;28;20746;-76
2022/08/07 01:36:43;;;;;;;7.05;4.85;;;12.30;99.90;;;;;;5030460;28;19944;-77
2022/08/07 01:39:09;;;;;;;;;;;12.30;99.90;;;;;;5029457;28;20045;-76
2022/08/07 01:41:35;;;;;;;8.98;5.85;;;12.30;99.90;;;;;;5028708;28;19924;-77
2022/08/07 01:44:02;;;;;;;8.45;5.00;;;12.20;99.90;;;;;;5028311;28;20033;-83
2022/08/07 01:46:29;;;;;;;6.32;5.00;;;12.20;99.90;;;;;;5012767;28;20045;-76
2022/08/07 01:48:58;;;;;;;7.07;5.00;;;12.30;99.90;;;;;;5028419;28;20112;-76
2022/08/07 01:51:24;;;;;;;6.63;5.10;;;12.30;99.90;;;;;;5029038;28;20653;-82
2022/08/07 01:53:56;;;;;;;9.25;6.20;;;12.30;99.90;;;;;;5032855;28;20276;-84
2022/08/07 01:56:35;;;;;;;8.40;6.00;;;12.30;99.90;;;;;;5049508;28;20056;-77
2022/08/07 01:59:10;;;;;;;10.85;6.85;;;12.30;99.90;;;;;;5048233;28;20071;-76
2022/08/07 02:01:42;;;;;;;9.05;6.72;;;12.30;99.90;;;;;;5032194;28;20075;-75
2022/08/07 02:04:14;;;;;;;11.60;6.75;;;12.30;99.90;;;;;;5038165;28;20041;-76
2022/08/07 02:06:42;;;;;;;8.80;6.43;;;12.30;99.90;;;;;;5029146;28;20037;-76
2022/08/07 02:09:11;;;;;;;8.10;6.25;;;12.30;99.90;;;;;;5035876;28;20045;-77
2022/08/07 02:11:40;;;;;;;9.35;5.78;;;12.30;99.90;;;;;;5048636;28;20043;-76
2022/08/07 02:14:08;;;;;;;10.50;7.05;;;12.30;99.90;;;;;;5047897;28;20062;-76
2022/08/07 02:16:37;;;;;;;8.75;6.45;;;12.40;99.90;;;;;;5048577;28;20045;-77
2022/08/07 02:19:12;;;;;;;9.18;6.60;;;12.40;99.90;;;;;;5031450;28;20069;-76
2022/08/07 02:21:39;;;;;;;9.88;6.80;;;12.30;99.90;;;;;;5028256;28;20064;-76
2022/08/07 02:24:06;;;;;;;10.80;6.88;;;12.30;99.90;;;;;;5027002;28;20149;-76
2022/08/07 02:26:37;;;;;;;9.77;6.60;;;12.30;99.90;;;;;;5028402;28;20072;-76
2022/08/07 02:29:06;;;;;;;8.63;6.78;;;12.40;99.90;;;;;;5027842;28;20049;-77
2022/08/07 02:31:32;;;;;;;9.32;6.78;;;12.40;99.90;;;;;;5038475;28;20048;-77
2022/08/07 02:34:03;;;;;;;;;;;12.50;99.90;;;;;;5015205;28;20044;-76
2022/08/07 02:36:29;;;;;;;10.60;6.70;;;12.40;99.90;;;;;;5047981;28;20011;-76
2022/08/07 02:38:59;;;;;;;9.20;6.13;;;12.40;99.90;;;;;;5018428;28;20041;-76
2022/08/07 02:41:26;;;;;;;9.45;6.25;;;12.30;99.90;;;;;;5031748;28;20134;-77
2022/08/07 02:43:54;;;;;;;10.35;6.60;;;12.30;99.90;;;;;;5028038;28;20048;-76
2022/08/07 02:46:23;;;;;;;10.65;6.63;;;12.30;99.90;;;;;;5027870;28;20378;-76
2022/08/07 02:48:49;;;;;;;10.05;6.82;;;12.20;99.90;;;;;;5011551;28;20037;-76
2022/08/07 02:51:18;;;;;;;8.60;6.60;;;12.20;99.90;;;;;;5047539;28;20033;-76
2022/08/07 02:53:52;;;;;;;9.13;6.25;;;12.10;99.90;;;;;;5047379;28;20041;-76
2022/08/07 02:56:20;;;;;;;10.80;7.30;;;12.10;99.90;;;;;;5042433;28;20513;-77
2022/08/07 02:58:48;;;;;;;9.10;6.63;;;12.10;99.90;;;;;;5027842;28;20123;-77
2022/08/07 03:01:16;;;;;;;9.20;6.38;;;12.10;99.90;;;;;;5027008;28;20033;-77
2022/08/07 03:03:42;;;;;;;9.05;6.20;;;12.00;99.90;;;;;;5028151;28;20385;-77
2022/08/07 03:06:09;;;;;;;9.07;6.18;;;12.00;99.90;;;;;;5028771;28;20049;-76
2022/08/07 03:08:36;;;;;;;10.48;6.63;;;12.00;99.90;;;;;;5011452;28;20087;-76
2022/08/07 03:11:02;;;;;;;9.13;6.45;;;11.90;99.90;;;;;;5027337;28;20048;-76
2022/08/07 03:13:28;;;;;;;10.85;6.40;;;11.90;99.90;;;;;;5027363;28;20398;-76
2022/08/07 03:15:54;;;;;;;9.17;6.57;;;11.90;99.90;;;;;;5027732;28;20457;-76
2022/08/07 03:18:21;;;;;;;;;;;11.80;99.90;;;;;;5027621;28;20311;-76
2022/08/07 03:20:47;;;;;;;10.20;6.35;;;11.80;99.90;;;;;;5027739;28;19917;-77
2022/08/07 03:23:14;;;;;;;11.15;6.70;;;11.80;99.90;;;;;;5027316;28;20044;-77
2022/08/07 03:25:41;;;;;;;9.32;6.15;;;11.80;99.90;;;;;;5011426;28;20052;-77
2022/08/07 03:28:10;;;;;;;10.75;7.15;;;11.90;99.90;;;;;;5010961;28;20041;-77
2022/08/07 03:30:37;;;;;;;11.38;6.68;;;11.80;99.90;;;;;;5027502;28;20041;-76
2022/08/07 03:33:03;;;;;;;9.32;6.88;;;11.80;99.90;;;;;;5027300;28;20509;-76
2022/08/07 03:35:29;;;;;;;;;;;11.80;99.90;;;;;;5028260;28;20567;-76
2022/08/07 03:38:05;;;;;;;9.02;6.53;;;11.90;99.90;;;;;;5027364;28;19917;-76
2022/08/07 03:40:30;;;;;;;11.00;7.18;;;11.80;99.90;;;;;;5027619;28;20092;-77
2022/08/07 03:42:56;;;;;;;13.27;7.35;;;11.80;99.90;;;;;;5011430;28;20429;-77
2022/08/07 03:45:24;;;;;;;9.07;6.45;;;11.80;99.90;;;;;;5027068;28;20057;-77
2022/08/07 03:47:51;;;;;;;8.30;6.20;;;11.80;99.90;;;;;;5027398;28;20038;-77
2022/08/07 03:50:19;;;;;;;9.15;6.50;;;11.80;99.90;;;;;;5010428;28;20091;-77
2022/08/07 03:52:45;;;;;;;10.68;6.80;;;11.80;99.90;;;;;;5027808;28;20091;-77
2022/08/07 03:55:12;;;;;;;10.88;6.90;;;11.80;99.90;;;;;;5026360;28;20067;-77
2022/08/07 03:57:38;;;;;;;10.40;7.32;;;11.80;99.90;;;;;;5010791;28;20081;-76
2022/08/07 04:00:04;;;;;;;;;;;11.80;99.90;;;;;;5027651;28;20029;-76
2022/08/07 04:02:30;;;;;;;11.15;6.70;;;11.70;99.90;;;;;;5042638;28;20413;-76
2022/08/07 04:04:56;;;;;;;12.50;7.10;;;11.80;99.90;;;;;;5011432;28;20033;-76
2022/08/07 04:07:22;;;;;;;10.45;7.05;;;11.80;99.90;;;;;;5013750;28;20074;-76
2022/08/07 04:09:50;;;;;;;10.80;7.45;;;11.80;99.90;;;;;;5031029;28;20397;-77
2022/08/07 04:12:16;;;;;;;11.15;6.68;;;11.80;99.90;;;;;;5013932;28;20045;-77
2022/08/07 04:14:42;;;;;;;8.65;6.38;;;11.80;99.90;;;;;;5030518;28;20034;-77
2022/08/07 04:17:08;;;;;;;;;;;11.80;99.90;;;;;;5030677;28;20504;-76
2022/08/07 04:19:35;;;;;;;8.85;6.13;;;11.80;99.90;;;;;;5030652;28;19917;-76
2022/08/07 04:22:02;;;;;;;8.43;6.18;;;11.80;99.90;;;;;;5031691;28;20037;-76
2022/08/07 04:24:28;;;;;;;12.90;6.40;;;11.80;99.90;;;;;;5029528;28;20544;-76
2022/08/07 04:26:54;;;;;;;9.82;6.25;;;11.70;99.90;;;;;;5030723;28;20041;-75
2022/08/07 04:29:19;;;;;;;11.23;7.40;;;11.70;99.90;;;;;;5030638;28;20037;-76
2022/08/07 04:31:45;;;;;;;9.38;6.28;;;11.70;99.90;;;;;;5030592;28;20045;-76
2022/08/07 04:34:11;;;;;;;9.52;6.32;;;11.80;99.90;;;;;;5029845;28;20049;-76
2022/08/07 04:36:39;;;;;;;9.95;6.38;;;11.80;99.90;;;;;;5014031;28;20041;-77
2022/08/07 04:39:05;;;;;;;8.30;6.30;;;11.70;99.90;;;;;;5013863;28;20121;-76
2022/08/07 04:41:31;;;;;;;8.57;6.13;;;11.80;99.90;;;;;;5013196;28;20116;-76
2022/08/07 04:44:00;;;;;;;9.63;6.55;;;11.80;99.90;;;;;;5030519;28;20140;-77
2022/08/07 04:46:50;;;;;;;9.13;6.38;;;11.80;99.90;;;;;;5029677;28;20072;-77
2022/08/07 04:49:18;;;;;;;8.02;5.85;;;11.80;99.90;;;;;;5013259;28;20045;-76
2022/08/07 04:51:47;;;;;;;9.27;5.97;;;11.80;99.90;;;;;;5014215;28;20481;-77
2022/08/07 04:54:32;;;;;;;9.48;6.13;;;11.90;99.90;;;;;;5029484;28;20042;-76
2022/08/07 04:57:22;;;;;;;7.63;5.80;;;11.90;99.90;;;;;;5031125;28;20049;-77
2022/08/07 04:59:54;;;;;;;9.73;5.90;;;11.90;99.90;;;;;;5030089;28;20144;-77
2022/08/07 05:02:45;;;;;;;8.43;5.85;;;11.90;99.90;;;;;;5029738;28;20571;-77
2022/08/07 05:05:19;;;;;;;9.30;5.65;;;12.00;99.90;;;;;;5029390;28;20077;-76
2022/08/07 05:08:11;;;;;;;7.90;5.65;;;12.00;99.90;;;;;;5029866;28;20120;-77
2022/08/07 05:10:46;;;;;;;11.07;5.93;;;12.00;99.90;;;;;;5029862;28;20045;-77
2022/08/07 05:13:26;;;;;;;12.43;6.32;;;12.10;99.90;;;;;;5039550;28;20148;-76
2022/08/07 05:15:56;;;;;;;8.90;6.03;;;12.10;99.90;;;;;;5034180;28;20073;-76
2022/08/07 05:18:27;;;;;;;9.23;6.00;;;12.10;99.90;;;;;;5029085;28;20052;-77
2022/08/07 05:20:56;;;;;;;7.45;5.88;;;12.20;99.90;;;;;;5029843;28;20504;-77
2022/08/07 05:23:49;;;;;;;10.20;6.10;;;12.30;99.90;;;;;;5029355;28;20049;-77
2022/08/07 05:26:21;;;;;;;9.30;6.15;;;12.30;99.90;;;;;;5028371;28;20049;-77
2022/08/07 05:28:50;;;;;;;7.93;5.78;;;12.30;99.90;;;;;;5029080;28;20059;-76
2022/08/07 05:31:18;;;;;;;7.43;5.75;;;12.40;99.90;;;;;;5027654;28;20049;-77
2022/08/07 05:33:45;;;;;;;7.22;5.60;;;12.40;99.90;;;;;;5029763;28;20053;-76
2022/08/07 05:36:12;;;;;;;9.88;6.38;;;12.50;99.90;;;;;;5013007;28;20529;-77
2022/08/07 05:38:39;;;;;;;;;;;12.50;99.90;;;;;;5029518;28;20398;-76
2022/08/07 05:41:05;;;;;;;9.80;6.40;;;12.60;99.90;;;;;;5029168;28;19967;-77
2022/08/07 05:43:32;;;;;;;10.52;6.03;;;12.70;99.90;;;;;;5028571;28;20049;-76
2022/08/07 05:46:01;;;;;;;8.98;6.32;;;12.90;99.90;;;;;;5028910;28;20112;-76
2022/08/07 05:48:28;;;;;;;8.27;6.18;;;13.10;99.90;;;;;;5007347;28;20047;-77
2022/08/07 05:50:59;;;;;;;8.98;6.05;;;13.20;99.90;;;;;;5048885;28;20032;-77
2022/08/07 05:53:26;;;;;;;8.60;6.15;;;13.40;99.90;;;;;;5031702;28;20064;-77
2022/08/07 05:55:53;;;;;;;9.88;6.43;;;13.60;99.90;;;;;;5048577;28;20049;-77
2022/08/07 05:58:22;;;;;;;8.45;6.05;;;13.80;99.90;;;;;;5048049;28;20037;-76
2022/08/07 06:00:50;;;;;;;11.38;5.88;;;13.90;99.90;;;;;;5048779;28;20036;-77
2022/08/07 06:03:18;;;;;;;9.45;6.60;;;14.10;99.90;;;;;;5043347;28;20041;-76
2022/08/07 06:05:46;;;;;;;8.15;5.72;;;14.30;99.90;;;;;;5028632;28;20033;-76
2022/08/07 06:08:13;;;;;;;9.45;6.63;;;14.40;99.90;;;;;;5028687;28;20077;-76
2022/08/07 06:10:40;;;;;;;8.90;5.57;;;14.50;99.90;;;;;;5028012;28;20048;-77
2022/08/07 06:13:06;;;;;;;8.25;5.90;;;14.70;99.90;;;;;;5028744;28;20049;-77
2022/08/07 06:15:35;;;;;;;8.32;6.32;;;14.70;99.90;;;;;;5011697;28;20459;-76
2022/08/07 06:18:02;;;;;;;9.38;5.78;;;15.00;99.90;;;;;;5028421;28;20040;-76
2022/08/07 06:20:30;;;;;;;10.82;6.72;;;15.20;99.90;;;;;;5027605;28;20033;-77
2022/08/07 06:22:56;;;;;;;7.53;5.68;;;15.60;99.90;;;;;;5028085;28;20045;-77
2022/08/07 06:25:22;;;;;;;;;;;16.20;99.90;;;;;;5027426;28;20091;-76
2022/08/07 06:27:48;;;;;;;6.30;5.10;;;16.70;99.90;;;;;;5027999;28;19925;-77
2022/08/07 06:30:13;;;;;;;8.20;5.30;;;17.20;99.90;;;;;;5028370;28;20035;-77
2022/08/07 06:32:39;;;;;;;6.13;4.85;;;17.80;99.90;;;;;;5012018;28;20045;-77
2022/08/07 06:35:05;;;;;;;6.10;4.47;;;18.20;99.90;;;;;;5028708;28;20048;-77
2022/08/07 06:37:31;;;;;;;7.20;4.75;;;18.60;99.90;;;;;;5027818;28;20037;-77
2022/08/07 06:39:57;;;;;;;5.70;4.55;;;19.00;99.90;;;;;;5028251;28;20052;-77
2022/08/07 06:42:35;;;;;;;6.47;4.40;;;19.40;99.90;;;;;;4994687;28;20124;-77
2022/08/07 06:45:03;;;;;;;7.70;4.07;;;19.70;99.90;;;;;;5028471;28;20041;-77
2022/08/07 06:47:29;;;;;;;5.05;4.10;;;19.90;99.90;;;;;;5027400;28;20041;-77
2022/08/07 06:49:56;;;;;;;4.45;3.60;;;20.20;99.90;;;;;;5028203;28;20087;-77
2022/08/07 06:52:23;;;;;;;5.25;3.72;;;20.30;99.90;;;;;;5004474;28;20052;-80
2022/08/07 06:54:51;;;;;;;5.10;3.47;;;20.50;99.90;;;;;;5050330;28;20041;-80
2022/08/07 06:57:19;;;;;;;5.22;3.55;;;20.60;99.90;;;;;;5004746;28;20413;-79
2022/08/07 06:59:46;;;;;;;3.40;2.65;;;20.70;99.90;;;;;;5027875;28;20037;-77
2022/08/07 07:02:17;;;;;;;4.22;2.92;;;21.10;99.90;;;;;;5011378;28;20037;-77
2022/08/07 07:04:47;;;;;;;3.55;2.47;;;21.30;99.90;;;;;;5027535;28;20033;-77
2022/08/07 07:07:13;;;;;;;4.43;3.10;;;21.50;99.90;;;;;;5027568;28;20037;-77
2022/08/07 07:09:47;;;;;;;3.88;2.50;;;21.60;99.90;;;;;;5027904;28;20047;-77
2022/08/07 07:12:33;;;;;;;4.15;2.50;;;21.80;99.90;;;;;;5027689;28;20102;-77
2022/08/07 07:15:34;;;;;;;3.28;2.10;;;21.90;99.90;;;;;;5030806;28;20056;-79
2022/08/07 07:18:07;;;;;;;3.75;1.88;;;22.20;99.90;;;;;;5047458;28;20678;-79
2022/08/07 07:20:42;;;;;;;4.38;2.08;;;22.30;99.90;;;;;;5047283;28;20040;-78
2022/08/07 07:23:09;;;;;;;3.10;2.03;;;22.50;99.90;;;;;;5047496;28;20063;-82
2022/08/07 07:25:38;;;;;;;3.53;1.80;;;22.70;99.90;;;;;;5045081;28;20037;-79
2022/08/07 07:28:11;;;;;;;2.60;1.50;;;22.70;99.90;;;;;;5047744;28;20056;-79
2022/08/07 07:30:40;;;;;;;2.50;1.60;;;22.80;99.90;;;;;;5016248;28;20044;-78
2022/08/07 07:33:11;;;;;;;3.83;1.55;;;22.90;99.90;;;;;;5028100;28;20095;-79
2022/08/07 07:35:38;;;;;;;2.20;1.40;;;23.00;99.90;;;;;;5027860;28;20072;-79
2022/08/07 07:38:07;;;;;;;2.42;1.60;;;23.20;99.80;;;;;;5012118;28;20507;-79
2022/08/07 07:40:34;;;;;;;2.80;1.92;;;23.30;99.70;;;;;;5028681;28;20139;-79
2022/08/07 07:43:04;;;;;;;3.08;1.98;;;23.40;99.90;;;;;;5030502;28;20034;-79
2022/08/07 07:45:30;;;;;;;3.05;1.92;;;23.60;99.20;;;;;;5055522;28;20033;-79
2022/08/07 07:47:58;;;;;;;3.33;2.08;;;23.80;98.90;;;;;;5023021;28;20124;-78
2022/08/07 07:50:26;;;;;;;4.22;2.30;;;23.80;98.20;;;;;;5031452;28;20045;-79
2022/08/07 07:52:53;;;;;;;3.65;2.53;;;23.90;98.50;;;;;;5031558;28;20041;-79
2022/08/07 07:55:20;;;;;;;3.55;2.40;;;24.00;99.20;;;;;;5031603;28;20136;-79
2022/08/07 07:57:49;;;;;;;5.07;2.83;;;24.10;98.70;;;;;;5014420;28;20064;-78
2022/08/07 08:00:17;;;;;;;3.25;2.40;;;24.10;98.00;;;;;;5031537;28;20041;-79
2022/08/07 08:02:46;;;;;;;3.65;2.00;;;24.30;98.10;;;;;;5031057;28;20129;-79
2022/08/07 08:05:15;;;;;;;3.63;2.28;;;24.10;96.60;;;;;;5037757;28;20033;-78
2022/08/07 08:07:41;;;;;;;3.80;2.45;;;24.10;97.90;;;;;;5051100;28;20481;-80
2022/08/07 08:10:08;;;;;;;4.35;2.47;;;24.10;97.80;;;;;;5053131;28;20111;-75
2022/08/07 08:12:35;;;;;;;5.75;2.50;;;24.30;97.20;;;;;;5047630;28;20135;-77
2022/08/07 08:15:01;;;;;;;3.13;2.47;;;24.40;96.30;;;;;;5014731;28;20111;-77
2022/08/07 08:17:28;;;;;;;4.05;2.63;;;24.60;97.10;;;;;;5033266;28;20033;-75
2022/08/07 08:20:14;;;;;;;3.05;2.60;;;24.50;97.30;;;;;;5051925;28;20033;-76
2022/08/07 08:28:26;;;;;;;2.78;2.03;;;24.70;97.10;;;;;;5030780;28;20049;-76
2022/08/07 08:30:56;;;;;;;3.95;2.58;;;25.00;96.50;;;;;;5030585;28;20093;-77
2022/08/07 08:33:25;;;;;;;3.35;2.10;;;25.00;96.30;;;;;;5030855;28;20051;-77
2022/08/07 08:35:54;;;;;;;2.97;2.10;;;25.00;94.90;;;;;;5048958;28;20036;-78
2022/08/07 08:38:24;;;;;;;2.88;2.05;;;24.90;95.90;;;;;;5050933;28;20037;-78
2022/08/07 08:41:06;;;;;;;3.38;2.17;;;24.80;96.30;;;;;;5044175;28;20067;-76
2022/08/07 08:43:46;;;;;;;3.53;1.95;;;24.70;95.60;;;;;;5030828;28;20065;-77
2022/08/07 08:46:19;;;;;;;2.28;1.88;;;24.80;96.10;;;;;;5030691;28;20045;-77
2022/08/07 08:48:58;;;;;;;2.90;2.38;;;25.10;96.10;;;;;;5031019;28;20037;-76
2022/08/07 08:51:30;;;;;;;3.45;2.30;;;25.30;95.80;;;;;;5042685;28;20171;-77
2022/08/07 08:54:05;;;;;;;3.65;2.20;;;25.20;96.30;;;;;;5050222;28;20519;-77
2022/08/07 08:56:42;;;;;;;2.90;1.92;;;25.30;95.50;;;;;;5050167;28;20041;-76
2022/08/07 08:59:29;;;;;;;3.92;2.45;;;24.90;94.40;;;;;;5041453;28;20052;-76
2022/08/07 09:02:13;;;;;;;3.70;2.55;;;24.60;95.40;;;;;;5030589;28;20077;-76
2022/08/07 09:05:08;;;;;;;4.50;2.17;;;24.60;95.60;;;;;;5030139;28;20041;-76
2022/08/07 09:08:08;;;;;;;3.88;1.90;;;25.00;95.40;;;;;;5030278;28;20037;-76
2022/08/07 09:10:51;;;;;;;3.97;2.33;;;25.10;94.70;;;;;;5030082;28;20056;-76
2022/08/07 09:13:42;;;;;;;3.45;2.17;;;24.90;95.60;;;;;;5013933;28;20394;-76
2022/08/07 09:16:22;;;;;;;3.70;2.10;;;25.20;94.90;;;;;;5018827;28;20072;-77
2022/08/07 09:18:54;;;;;;;3.78;1.95;;;25.60;94.90;;;;;;5029753;28;20049;-76
2022/08/07 09:21:48;;;;;;;3.42;2.20;;;26.10;95.00;;;;;;5029658;28;20375;-76
2022/08/07 09:24:38;;;;;;;2.38;1.98;;;26.50;94.40;;;;;;5029772;28;20037;-76
2022/08/07 09:27:35;;;;;;;4.05;1.90;;;26.70;93.80;;;;;;5013196;28;20111;-76
2022/08/07 09:30:07;;;;;;;3.20;1.83;;;26.90;92.80;;;;;;5029595;28;20037;-75
2022/08/07 09:32:48;;;;;;;3.05;1.92;;;27.40;93.10;;;;;;5013172;28;20041;-76
2022/08/07 09:35:31;;;;;;;3.40;1.90;;;27.50;92.70;;;;;;5029510;28;20064;-76
2022/08/07 09:38:03;;;;;;;3.58;1.70;;;27.80;93.30;;;;;;5037550;28;20509;-77
2022/08/07 09:40:49;;;;;;;2.58;1.60;;;27.80;92.80;;;;;;5033818;28;20532;-75
2022/08/07 09:43:15;;;;;;;2.22;1.80;;;27.60;92.80;;;;;;5029412;28;20124;-76
2022/08/07 09:46:13;;;;;;;3.22;1.70;;;27.40;92.60;;;;;;5029469;28;20077;-76
2022/08/07 09:48:50;;;;;;;2.30;1.90;;;27.20;92.80;;;;;;5047803;28;20037;-81
2022/08/07 09:51:27;;;;;;;5.43;1.83;;;27.10;93.50;;;;;;5046575;28;20034;-78
2022/08/07 09:53:58;;;;;;;4.45;2.05;;;27.00;92.60;;;;;;5036957;28;20045;-78
2022/08/07 09:56:39;;;;;;;2.45;1.80;;;27.40;93.30;;;;;;5039773;28;20052;-78
2022/08/07 09:59:41;;;;;;;2.92;1.90;;;27.70;92.80;;;;;;5038156;28;20507;-80
2022/08/07 10:02:07;;;;;;;2.17;1.50;;;28.20;92.30;;;;;;5049160;28;20393;-78
2022/08/07 10:04:43;;;;;;;3.22;1.80;;;28.10;92.10;;;;;;5048282;28;20048;-78
2022/08/07 10:07:29;;;;;;;3.60;1.92;;;27.60;92.30;;;;;;5034757;28;20563;-80
2022/08/07 10:10:08;;;;;;;;;;;26.70;92.90;;;;;;5035661;28;20045;-80
2022/08/07 10:13:08;;;;;;;3.05;1.80;;;26.80;92.90;;;;;;5033146;28;20385;-80
2022/08/07 10:15:59;;;;;;;1.90;1.63;;;27.40;91.40;;;;;;5040171;28;20480;-80
2022/08/07 10:18:34;;;;;;;2.67;1.70;;;27.80;91.80;;;;;;5036886;28;20049;-79
2022/08/07 10:21:15;;;;;;;3.03;1.48;;;28.10;91.50;;;;;;5034413;28;20072;-77
2022/08/07 10:23:50;;;;;;;3.28;1.50;;;28.60;91.70;;;;;;5035701;28;20045;-79
2022/08/07 10:26:27;;;;;;;4.28;1.40;;;28.70;91.50;;;;;;5033861;28;20042;-78
2022/08/07 10:29:15;;;;;;;2.90;1.55;;;28.60;91.20;;;;;;5024616;28;20482;-78
2022/08/07 10:32:03;;;;;;;3.00;1.30;;;29.00;89.90;;;;;;5010495;28;20041;-78
2022/08/07 10:35:11;;;;;;;2.17;1.20;;;29.00;90.40;;;;;;4988392;28;20524;-78
2022/08/07 10:37:59;;;;;;;2.70;1.40;;;29.00;89.50;;;;;;5008887;28;20547;-77
2022/08/07 10:40:28;;;;;;;2.80;1.33;;;29.60;88.30;;;;;;5026475;28;20079;-77
2022/08/07 10:43:24;;;;;;;2.58;1.50;;;29.30;88.40;;;;;;5033191;28;20045;-78
2022/08/07 10:46:28;;;;;;;2.55;1.10;;;29.30;89.50;;;;;;4996634;28;20076;-77
2022/08/07 10:49:11;;;;;;;3.92;1.20;;;29.80;88.30;;;;;;4982376;28;20095;-77
2022/08/07 10:51:55;;;;;;;1.88;1.20;;;29.70;87.30;;;;;;5009029;28;20049;-79
2022/08/07 10:54:43;;;;;;;3.88;1.30;;;29.90;88.70;;;;;;5031940;28;20040;-77
2022/08/07 10:57:25;;;;;;;2.72;1.38;;;30.30;89.20;;;;;;5045911;28;20033;-79
2022/08/07 11:00:12;;;;;;;2.33;1.30;;;30.50;88.90;;;;;;5046568;28;20040;-78
2022/08/07 11:03:02;;;;;;;2.83;1.35;;;30.30;88.00;;;;;;5037113;28;20037;-81
2022/08/07 11:05:49;;;;;;;6.18;1.33;;;30.70;88.80;;;;;;5010703;28;20059;-77
2022/08/07 11:08:42;;;;;;;2.28;1.15;;;30.60;87.90;;;;;;5020580;28;20045;-77
2022/08/07 11:11:30;;;;;;;1.75;1.10;;;30.70;87.00;;;;;;5026394;28;20116;-77
2022/08/07 11:14:55;;;;;;;2.55;1.50;;;30.30;86.50;;;;;;5009694;28;20037;-77
2022/08/07 11:17:29;;;;;;;2.47;1.10;;;30.50;87.00;;;;;;4975420;28;20573;-77
2022/08/07 11:20:02;;;;;;;2.28;1.10;;;30.30;87.20;;;;;;4976386;28;20557;-76
2022/08/07 11:22:59;;;;;;;2.92;1.10;;;30.30;86.50;;;;;;5015287;28;20046;-76
2022/08/07 11:25:35;;;;;;;2.20;1.10;;;30.80;86.00;;;;;;5012087;28;20049;-77
2022/08/07 11:28:09;;;;;;;3.17;1.30;;;31.20;85.60;;;;;;5015586;28;20045;-77
2022/08/07 11:31:06;;;;;;;2.22;1.00;;;31.40;86.20;;;;;;5032530;28;20048;-77
2022/08/07 11:33:48;;;;;;;1.65;0.93;;;31.30;83.50;;;;;;5015878;28;20060;-78
2022/08/07 11:36:36;;;;;;;1.55;1.10;;;31.20;87.50;;;;;;5032287;28;20045;-77
2022/08/07 11:39:15;;;;;;;2.47;1.00;;;30.70;85.30;;;;;;5032517;28;20054;-76
2022/08/07 11:41:53;;;;;;;2.83;1.08;;;30.20;86.40;;;;;;5032506;28;20037;-77
2022/08/07 11:44:54;;;;;;;1.42;0.80;;;30.10;86.90;;;;;;5032318;28;20041;-78
2022/08/07 11:47:30;;;;;;;1.50;1.13;;;30.20;86.70;;;;;;5032296;28;20137;-77
2022/08/07 11:50:16;;;;;;;1.55;0.98;;;30.00;86.80;;;;;;5032003;28;20405;-78
2022/08/07 11:52:57;;;;;;;;;;;29.50;86.50;;;;;;5032520;28;20041;-77
2022/08/07 11:55:54;;;;;;;3.10;1.05;;;28.90;89.90;;;;;;5031192;28;20255;-77
2022/08/07 11:58:48;;;;;;;1.63;1.02;;;28.70;89.90;;;;;;5032216;28;20041;-77
2022/08/07 12:01:13;;;;;;;2.67;1.00;;;28.50;88.70;;;;;;5015072;28;20037;-78
2022/08/07 12:04:05;;;;;;;1.90;1.00;;;28.40;88.80;;;;;;5031671;28;20061;-78
2022/08/07 12:06:40;;;;;;;2.25;1.00;;;28.90;88.40;;;;;;5015515;28;20119;-78
2022/08/07 12:09:17;;;;;;;1.48;0.90;;;29.30;87.80;;;;;;5031858;28;20041;-78
2022/08/07 12:11:50;;;;;;;2.08;1.00;;;29.60;89.20;;;;;;5033249;28;20052;-78
2022/08/07 12:14:20;;;;;;;1.85;1.00;;;29.60;88.70;;;;;;5031733;28;20116;-77
2022/08/07 12:16:50;;;;;;;2.33;1.13;;;29.80;88.30;;;;;;5031723;28;20049;-77
2022/08/07 12:19:41;;;;;;;1.83;1.10;;;29.70;89.20;;;;;;5032251;28;20043;-78
2022/08/07 12:22:11;;;;;;;1.95;1.10;;;29.60;89.60;;;;;;5031213;28;20042;-77
2022/08/07 12:27:47;;;;;;;4.07;1.17;;;29.90;88.60;;;;;;5044518;28;20433;-78
2022/08/07 12:30:13;;;;;;;0.98;0.88;;;29.70;88.40;;;;;;5031318;28;20046;-78
2022/08/07 12:32:46;;;;;;;2.10;1.17;;;29.60;88.70;;;;;;5015082;28;20398;-78
2022/08/07 12:35:14;;;;;;;1.45;0.95;;;29.60;88.50;;;;;;5031124;28;20095;-77
2022/08/07 12:37:41;;;;;;;4.20;1.25;;;29.50;89.60;;;;;;5031139;28;20076;-78
2022/08/07 12:40:09;;;;;;;2.45;0.75;;;29.60;87.60;;;;;;5031128;28;20053;-77
2022/08/07 12:42:36;;;;;;;2.65;1.00;;;29.90;87.60;;;;;;5050396;28;20404;-78
2022/08/07 12:45:09;;;;;;;1.27;0.70;;;30.10;86.00;;;;;;5023446;28;20057;-78
2022/08/07 12:47:48;;;;;;;2.00;1.05;;;30.20;83.50;;;;;;5031341;28;20060;-78
2022/08/07 12:50:32;;;;;;;2.40;0.88;;;30.10;85.90;;;;;;5031182;28;20041;-78
2022/08/07 12:53:06;;;;;;;2.70;1.00;;;29.90;86.30;;;;;;5031401;28;20514;-78
2022/08/07 12:55:55;;;;;;;2.65;1.10;;;29.60;89.40;;;;;;5030819;28;20048;-78
2022/08/07 12:58:22;;;;;;;2.42;1.30;;;29.00;90.30;;;;;;5023205;28;20053;-80
2022/08/07 13:01:13;;;;;;;2.92;1.58;;;28.80;90.60;;;;;;5048478;28;20083;-77
2022/08/07 13:04:13;;;;;;;2.42;1.50;;;28.60;90.80;;;;;;5050349;28;20041;-79
2022/08/07 13:07:04;;;;;;;2.72;1.50;;;28.20;90.60;;;;;;5035711;28;20460;-78
2022/08/07 13:09:51;;;;;;;2.55;1.40;;;28.10;91.20;;;;;;5014001;28;20053;-76
2022/08/07 13:12:28;;;;;;;2.58;1.80;;;28.10;90.90;;;;;;5030022;28;20041;-79
2022/08/07 13:15:12;;;;;;;2.53;1.38;;;28.10;90.70;;;;;;5030552;28;20049;-78
2022/08/07 13:18:01;;;;;;;2.70;1.42;;;27.70;90.90;;;;;;5029859;28;20041;-77
2022/08/07 13:20:34;;;;;;;3.25;1.48;;;27.70;91.50;;;;;;5012186;28;20410;-77
2022/08/07 13:23:18;;;;;;;2.10;1.50;;;27.40;91.00;;;;;;5030235;28;20037;-78
2022/08/07 13:26:04;;;;;;;2.88;1.50;;;27.40;91.50;;;;;;5013783;28;20034;-78
2022/08/07 13:28:37;;;;;;;4.05;1.60;;;27.50;91.10;;;;;;5030327;28;20034;-78